createdAt,value
2022-08-03T00:02:19.042Z,21.38
2022-08-03T00:04:46.681Z,21.36
2022-08-03T00:07:13.966Z,21.33
2022-08-03T00:09:41.265Z,21.30
2022-08-03T00:12:09.008Z,21.30
2022-08-03T00:14:36.484Z,21.29
2022-08-03T00:17:03.793Z,21.28
2022-08-03T00:19:31.090Z,21.26
2022-08-03T00:21:58.314Z,21.26
2022-08-03T00:24:25.622Z,21.25
2022-08-03T00:26:52.894Z,21.22
2022-08-03T00:29:20.112Z,21.21
2022-08-03T00:31:52.566Z,21.18
2022-08-03T00:34:30.955Z,21.16
2022-08-03T00:37:07.629Z,21.13
2022-08-03T00:39:34.834Z,21.10
2022-08-03T00:42:05.906Z,21.07
2022-08-03T00:44:41.018Z,21.06
2022-08-03T00:47:10.738Z,21.03
2022-08-03T00:49:41.139Z,21.04
2022-08-03T00:52:10.906Z,21.02
2022-08-03T00:54:39.954Z,20.99
2022-08-03T00:57:08.278Z,20.97
2022-08-03T00:59:35.661Z,20.92
2022-08-03T01:02:02.950Z,20.89
2022-08-03T01:04:30.204Z,20.85
2022-08-03T01:07:54.736Z,20.80
2022-08-03T01:10:42.913Z,20.72
2022-08-03T01:14:01.421Z,20.69
2022-08-03T01:16:42.455Z,20.66
2022-08-03T01:19:54.574Z,20.64
2022-08-03T01:23:03.525Z,20.58
2022-08-03T01:25:58.942Z,20.54
2022-08-03T01:29:18.700Z,20.49
2022-08-03T01:32:59.152Z,20.45
2022-08-03T01:35:09.002Z,20.41
2022-08-03T01:37:51.972Z,20.40
2022-08-03T01:40:24.622Z,20.40
2022-08-03T01:42:57.575Z,20.40
2022-08-03T01:45:26.650Z,20.39
2022-08-03T01:47:55.945Z,20.38
2022-08-03T01:50:29.286Z,20.38
2022-08-03T01:52:59.067Z,20.36
2022-08-03T01:55:29.601Z,20.35
2022-08-03T01:58:04.813Z,20.34
2022-08-03T02:00:37.708Z,20.33
2022-08-03T02:03:08.633Z,20.31
2022-08-03T02:05:39.296Z,20.29
2022-08-03T02:08:13.975Z,20.24
2022-08-03T02:10:46.184Z,20.21
2022-08-03T02:13:16.334Z,20.18
2022-08-03T02:15:44.846Z,20.15
2022-08-03T02:18:13.940Z,20.15
2022-08-03T02:20:44.431Z,20.14
2022-08-03T02:23:12.146Z,20.12
2022-08-03T02:25:47.067Z,20.11
2022-08-03T02:28:22.358Z,20.08
2022-08-03T02:30:56.767Z,20.04
2022-08-03T02:33:47.292Z,20.01
2022-08-03T02:36:19.962Z,19.98
2022-08-03T02:38:54.940Z,19.95
2022-08-03T02:41:32.153Z,19.90
2022-08-03T02:44:10.862Z,19.85
2022-08-03T02:46:49.427Z,19.82
2022-08-03T02:49:35.394Z,19.82
2022-08-03T02:52:15.480Z,19.77
2022-08-03T02:54:47.712Z,19.75
2022-08-03T02:57:18.624Z,19.73
2022-08-03T02:59:47.682Z,19.71
2022-08-03T03:02:17.841Z,19.70
2022-08-03T03:05:50.808Z,19.66
2022-08-03T03:07:46.897Z,19.66
2022-08-03T03:10:25.844Z,19.62
2022-08-03T03:12:57.345Z,19.60
2022-08-03T03:15:29.105Z,19.57
2022-08-03T03:17:58.114Z,19.55
2022-08-03T03:20:30.124Z,19.52
2022-08-03T03:23:01.558Z,19.50
2022-08-03T03:25:33.213Z,19.48
2022-08-03T03:28:02.899Z,19.45
2022-08-03T03:30:30.352Z,19.42
2022-08-03T03:32:59.277Z,19.38
2022-08-03T03:35:28.204Z,19.38
2022-08-03T03:37:55.637Z,19.37
2022-08-03T03:40:23.674Z,19.33
2022-08-03T03:42:51.220Z,19.29
2022-08-03T03:45:20.680Z,19.27
2022-08-03T03:47:48.288Z,19.24
2022-08-03T03:50:18.438Z,19.21
2022-08-03T03:52:45.803Z,19.17
2022-08-03T03:55:18.337Z,19.15
2022-08-03T03:57:46.462Z,19.11
2022-08-03T04:00:17.854Z,19.11
2022-08-03T04:02:46.518Z,19.09
2022-08-03T04:05:34.118Z,19.07
2022-08-03T04:08:25.608Z,19.05
2022-08-03T04:11:19.115Z,19.03
2022-08-03T04:13:57.546Z,19.01
2022-08-03T04:16:35.287Z,18.98
2022-08-03T04:19:23.254Z,18.98
2022-08-03T04:21:57.724Z,18.96
2022-08-03T04:24:35.371Z,18.94
2022-08-03T04:27:09.562Z,18.95
2022-08-03T04:29:48.565Z,18.92
2022-08-03T04:32:18.183Z,18.92
2022-08-03T04:34:46.912Z,18.94
2022-08-03T04:37:38.531Z,18.94
2022-08-03T04:40:22.857Z,18.93
2022-08-03T04:42:55.781Z,18.96
2022-08-03T04:45:24.843Z,18.99
2022-08-03T04:47:53.314Z,19.07
2022-08-03T04:50:22.114Z,19.16
2022-08-03T04:53:07.218Z,19.20
2022-08-03T04:55:36.542Z,19.22
2022-08-03T04:58:06.412Z,19.24
2022-08-03T05:00:33.695Z,19.25
2022-08-03T05:03:00.894Z,19.24
2022-08-03T05:05:49.643Z,19.22
2022-08-03T05:08:16.461Z,19.20
2022-08-03T05:10:48.558Z,19.17
2022-08-03T05:13:15.935Z,19.15
2022-08-03T05:15:43.406Z,19.14
2022-08-03T05:18:14.105Z,19.13
2022-08-03T05:20:41.886Z,19.14
2022-08-03T05:23:09.057Z,19.15
2022-08-03T05:25:36.412Z,19.14
2022-08-03T05:28:04.448Z,19.14
2022-08-03T05:30:34.126Z,19.14
2022-08-03T05:33:03.811Z,19.15
2022-08-03T05:35:57.788Z,19.18
2022-08-03T05:38:24.092Z,19.21
2022-08-03T05:41:21.376Z,19.23
2022-08-03T05:43:45.585Z,19.27
2022-08-03T05:46:13.335Z,19.31
2022-08-03T05:48:42.851Z,19.32
2022-08-03T05:51:11.768Z,19.36
2022-08-03T05:53:42.306Z,19.40
2022-08-03T05:56:14.261Z,19.45
2022-08-03T05:58:48.070Z,19.49
2022-08-03T06:01:17.292Z,19.56
2022-08-03T06:03:46.368Z,19.62
2022-08-03T06:06:14.164Z,19.66
2022-08-03T06:08:43.785Z,19.70
2022-08-03T06:11:11.564Z,19.77
2022-08-03T06:13:39.397Z,19.84
2022-08-03T06:16:06.894Z,19.90
2022-08-03T06:18:35.110Z,19.97
2022-08-03T06:21:13.993Z,20.05
2022-08-03T06:23:54.642Z,20.15
2022-08-03T06:26:26.556Z,20.21
2022-08-03T06:28:55.022Z,20.29
2022-08-03T06:31:33.107Z,20.37
2022-08-03T06:34:33.639Z,20.45
2022-08-03T06:36:58.476Z,20.54
2022-08-03T06:39:29.559Z,20.61
2022-08-03T06:41:56.797Z,20.70
2022-08-03T06:44:24.109Z,20.78
2022-08-03T06:46:51.831Z,20.87
2022-08-03T06:49:19.684Z,20.95
2022-08-03T06:52:03.491Z,21.02
2022-08-03T06:54:33.851Z,21.12
2022-08-03T06:57:01.302Z,21.20
2022-08-03T07:00:08.292Z,21.24
2022-08-03T07:02:19.461Z,21.32
2022-08-03T07:04:49.070Z,21.36
2022-08-03T07:07:17.391Z,21.43
2022-08-03T07:09:54.953Z,21.52
2022-08-03T07:14:55.504Z,21.67
2022-08-03T07:17:25.795Z,21.77
2022-08-03T07:19:53.010Z,21.86
2022-08-03T07:22:20.248Z,21.93
2022-08-03T07:24:47.798Z,22.00
2022-08-03T07:27:16.949Z,22.08
2022-08-03T07:29:44.286Z,22.14
2022-08-03T07:32:11.459Z,22.21
2022-08-03T07:34:38.726Z,22.26
2022-08-03T07:37:06.021Z,22.31
2022-08-03T07:39:33.414Z,22.38
2022-08-03T07:42:00.651Z,22.47
2022-08-03T07:44:27.861Z,22.54
2022-08-03T07:46:55.183Z,22.64
2022-08-03T07:49:24.213Z,22.75
2022-08-03T07:52:11.481Z,22.87
2022-08-03T07:54:38.844Z,23.00
2022-08-03T07:57:06.311Z,23.09
2022-08-03T08:00:01.652Z,23.15
2022-08-03T08:02:22.467Z,23.24
2022-08-03T08:04:50.568Z,23.35
2022-08-03T08:07:18.186Z,23.43
2022-08-03T08:09:47.887Z,23.51
2022-08-03T08:12:16.107Z,23.57
2022-08-03T08:14:45.884Z,23.68
2022-08-03T08:17:14.499Z,23.76
2022-08-03T08:19:51.331Z,23.88
2022-08-03T08:22:28.735Z,23.99
2022-08-03T08:24:59.767Z,24.16
2022-08-03T08:27:28.786Z,24.28
2022-08-03T08:30:21.288Z,24.47
2022-08-03T08:32:50.383Z,24.65
2022-08-03T08:35:19.591Z,24.78
2022-08-03T08:37:50.766Z,25.01
2022-08-03T08:40:22.572Z,25.36
2022-08-03T08:42:58.780Z,25.76
2022-08-03T08:45:26.817Z,26.18
2022-08-03T08:48:01.799Z,26.65
2022-08-03T08:50:31.038Z,27.18
2022-08-03T08:53:03.730Z,27.62
2022-08-03T08:55:58.041Z,27.99
2022-08-03T08:58:22.766Z,28.33
2022-08-03T09:00:51.577Z,28.54
2022-08-03T09:03:22.742Z,28.75
2022-08-03T09:06:02.405Z,29.07
2022-08-03T09:08:32.760Z,29.33
2022-08-03T09:11:00.653Z,29.51
2022-08-03T09:13:29.083Z,29.79
2022-08-03T09:16:21.265Z,30.03
2022-08-03T09:18:54.531Z,30.15
2022-08-03T09:21:33.572Z,30.29
2022-08-03T09:24:07.063Z,30.40
2022-08-03T09:26:38.262Z,30.54
2022-08-03T09:29:14.813Z,30.64
2022-08-03T09:31:46.982Z,30.78
2022-08-03T09:34:18.217Z,31.03
2022-08-03T09:36:48.897Z,31.16
2022-08-03T09:39:41.421Z,31.22
2022-08-03T09:42:18.725Z,31.33
2022-08-03T09:44:52.268Z,31.42
2022-08-03T09:47:44.757Z,31.51
2022-08-03T09:50:12.993Z,31.57
2022-08-03T09:52:51.979Z,31.71
2022-08-03T09:56:30.971Z,31.89
2022-08-03T09:58:11.327Z,32.15
2022-08-03T10:01:04.022Z,32.34
2022-08-03T10:04:03.244Z,32.54
2022-08-03T10:06:29.012Z,32.70
2022-08-03T10:09:16.870Z,32.80
2022-08-03T10:11:46.945Z,32.91
2022-08-03T10:14:19.180Z,32.87
2022-08-03T10:16:49.026Z,32.89
2022-08-03T10:19:17.400Z,32.97
2022-08-03T10:21:56.289Z,33.02
2022-08-03T10:24:30.922Z,33.04
2022-08-03T10:27:11.445Z,33.05
2022-08-03T10:29:45.692Z,33.28
2022-08-03T10:32:42.155Z,33.39
2022-08-03T10:35:20.096Z,33.34
2022-08-03T10:38:07.277Z,33.48
2022-08-03T10:40:48.577Z,33.55
2022-08-03T10:43:37.069Z,33.73
2022-08-03T10:46:07.993Z,33.78
2022-08-03T10:48:37.429Z,33.85
2022-08-03T10:51:06.769Z,34.00
2022-08-03T10:53:54.235Z,34.20
2022-08-03T10:57:14.676Z,34.30
2022-08-03T10:59:51.012Z,34.38
2022-08-03T11:02:18.667Z,34.45
2022-08-03T11:04:45.957Z,34.54
2022-08-03T11:07:23.506Z,34.66
2022-08-03T11:09:56.657Z,34.88
2022-08-03T11:12:33.862Z,35.00
2022-08-03T11:15:08.773Z,34.95
2022-08-03T11:17:46.421Z,34.90
2022-08-03T11:20:51.366Z,34.85
2022-08-03T11:24:02.834Z,34.58
2022-08-03T11:26:34.178Z,34.42
2022-08-03T11:29:31.670Z,34.36
2022-08-03T11:31:59.178Z,34.43
2022-08-03T11:34:26.740Z,34.58
2022-08-03T11:38:03.220Z,34.72
2022-08-03T11:40:52.950Z,34.72
2022-08-03T11:43:30.802Z,34.81
2022-08-03T11:46:28.208Z,34.91
2022-08-03T11:49:10.832Z,34.62
2022-08-03T11:51:40.603Z,34.28
2022-08-03T11:54:08.400Z,33.95
2022-08-03T11:56:50.591Z,33.59
2022-08-03T11:59:21.887Z,33.31
2022-08-03T12:01:50.812Z,32.97
2022-08-03T12:04:19.304Z,32.77
2022-08-03T12:07:02.263Z,32.59
2022-08-03T12:09:29.579Z,32.44
2022-08-03T12:12:00.345Z,32.32
2022-08-03T12:14:49.684Z,32.20
2022-08-03T12:17:19.657Z,32.05
2022-08-03T12:19:47.444Z,32.00
2022-08-03T12:22:16.766Z,31.92
2022-08-03T12:24:48.020Z,31.86
2022-08-03T12:27:29.731Z,31.82
2022-08-03T12:30:01.561Z,31.74
2022-08-03T12:32:30.668Z,31.68
2022-08-03T12:35:01.650Z,31.67
2022-08-03T12:37:29.935Z,31.69
2022-08-03T12:40:07.791Z,31.70
2022-08-03T12:42:40.764Z,31.69
2022-08-03T12:45:31.932Z,31.68
2022-08-03T12:48:02.383Z,31.64
2022-08-03T12:50:32.097Z,31.59
2022-08-03T12:53:02.563Z,31.56
2022-08-03T12:55:57.229Z,31.52
2022-08-03T12:58:34.933Z,31.50
2022-08-03T13:01:09.975Z,31.52
2022-08-03T13:03:50.349Z,31.56
2022-08-03T13:06:29.329Z,31.65
2022-08-03T13:09:07.858Z,31.67
2022-08-03T13:11:57.660Z,31.65
2022-08-03T13:14:23.664Z,31.72
2022-08-03T13:16:52.184Z,31.78
2022-08-03T13:19:19.445Z,31.83
2022-08-03T13:21:53.578Z,31.90
2022-08-03T13:24:33.643Z,31.98
2022-08-03T13:28:02.086Z,32.08
2022-08-03T13:29:51.041Z,32.28
2022-08-03T13:32:19.363Z,32.44
2022-08-03T13:34:47.226Z,32.69
2022-08-03T13:37:15.060Z,33.02
2022-08-03T13:39:59.867Z,33.47
2022-08-03T13:42:32.564Z,34.01
2022-08-03T13:45:02.369Z,34.63
2022-08-03T13:47:29.790Z,34.93
2022-08-03T13:50:01.013Z,34.53
2022-08-03T13:52:36.591Z,34.78
2022-08-03T13:55:06.915Z,35.21
2022-08-03T13:58:06.682Z,35.56
2022-08-03T14:00:27.059Z,35.34
2022-08-03T14:03:05.057Z,35.16
2022-08-03T14:05:34.039Z,35.60
2022-08-03T14:08:04.261Z,36.16
2022-08-03T14:10:43.357Z,36.61
2022-08-03T14:13:17.588Z,37.14
2022-08-03T14:15:49.916Z,37.52
2022-08-03T14:18:27.665Z,37.70
2022-08-03T14:21:03.485Z,37.25
2022-08-03T14:23:34.887Z,37.04
2022-08-03T14:26:02.124Z,37.23
2022-08-03T14:28:29.326Z,37.50
2022-08-03T14:30:56.961Z,37.75
2022-08-03T14:33:24.746Z,37.94
2022-08-03T14:35:53.108Z,38.24
2022-08-03T14:38:21.368Z,38.42
2022-08-03T14:40:49.296Z,38.45
2022-08-03T14:43:23.231Z,38.55
2022-08-03T14:45:53.450Z,38.52
2022-08-03T14:50:32.312Z,38.03
2022-08-03T14:51:10.490Z,38.15
2022-08-03T14:53:37.827Z,38.30
2022-08-03T14:56:10.124Z,38.49
2022-08-03T14:58:38.665Z,38.59
2022-08-03T15:02:06.334Z,38.58
2022-08-03T15:03:54.679Z,38.57
2022-08-03T15:06:21.942Z,38.67
2022-08-03T15:09:13.634Z,38.89
2022-08-03T15:11:37.306Z,39.16
2022-08-03T15:14:08.948Z,38.90
2022-08-03T15:16:37.596Z,38.87
2022-08-03T15:20:03.796Z,39.01
2022-08-03T15:21:53.553Z,39.31
2022-08-03T15:24:20.907Z,39.57
2022-08-03T15:26:48.105Z,39.70
2022-08-03T15:30:05.427Z,39.75
2022-08-03T15:32:05.007Z,39.82
2022-08-03T15:34:36.028Z,39.89
2022-08-03T15:37:05.198Z,39.99
2022-08-03T15:39:59.105Z,40.02
2022-08-03T15:42:31.207Z,39.80
2022-08-03T15:44:58.550Z,39.66
2022-08-03T15:47:26.858Z,39.56
2022-08-03T15:49:54.143Z,39.62
2022-08-03T15:52:21.378Z,39.75
2022-08-03T15:54:48.642Z,39.78
2022-08-03T15:57:15.847Z,39.73
2022-08-03T15:59:43.052Z,39.52
2022-08-03T16:02:10.669Z,39.13
2022-08-03T16:04:37.927Z,38.71
2022-08-03T16:07:05.490Z,38.28
2022-08-03T16:09:43.291Z,37.78
2022-08-03T16:12:16.020Z,37.25
2022-08-03T16:14:52.932Z,36.71
2022-08-03T16:17:22.563Z,36.08
2022-08-03T16:19:53.431Z,35.56
2022-08-03T16:22:24.199Z,35.13
2022-08-03T16:24:53.793Z,34.77
2022-08-03T16:27:58.098Z,34.51
2022-08-03T16:30:18.593Z,34.29
2022-08-03T16:32:46.282Z,34.11
2022-08-03T16:35:19.870Z,33.98
2022-08-03T16:37:56.286Z,33.76
2022-08-03T16:40:25.274Z,33.49
2022-08-03T16:42:52.753Z,33.29
2022-08-03T16:45:20.132Z,33.16
2022-08-03T16:47:47.570Z,33.03
2022-08-03T16:50:28.636Z,32.91
2022-08-03T16:52:56.308Z,32.86
2022-08-03T16:55:48.582Z,32.81
2022-08-03T16:58:12.493Z,32.78
2022-08-03T17:00:41.657Z,32.73
2022-08-03T17:03:19.014Z,32.66
2022-08-03T17:05:52.266Z,32.54
2022-08-03T17:08:26.514Z,32.51
2022-08-03T17:10:56.018Z,32.46
2022-08-03T17:13:38.878Z,32.43
2022-08-03T17:16:12.026Z,32.38
2022-08-03T17:19:03.849Z,32.30
2022-08-03T17:21:39.313Z,32.28
2022-08-03T17:24:33.763Z,32.24
2022-08-03T17:27:18.634Z,32.23
2022-08-03T17:30:07.781Z,32.19
2022-08-03T17:32:42.293Z,32.20
2022-08-03T17:35:11.114Z,32.23
2022-08-03T17:37:57.573Z,32.21
2022-08-03T17:40:26.003Z,32.21
2022-08-03T17:42:54.291Z,32.19
2022-08-03T17:45:21.662Z,32.16
2022-08-03T17:47:57.550Z,32.15
2022-08-03T17:50:46.501Z,32.11
2022-08-03T17:53:24.530Z,32.12
2022-08-03T17:56:07.838Z,32.10
2022-08-03T17:59:15.588Z,32.07
2022-08-03T18:02:35.352Z,32.04
2022-08-03T18:05:16.798Z,31.96
2022-08-03T18:08:02.680Z,31.89
2022-08-03T18:10:36.405Z,31.79
2022-08-03T18:13:58.441Z,31.72
2022-08-03T18:16:38.314Z,31.66
2022-08-03T18:19:09.238Z,31.59
2022-08-03T18:22:03.570Z,31.42
2022-08-03T18:24:27.311Z,31.24
2022-08-03T18:26:59.535Z,31.07
2022-08-03T18:29:29.976Z,30.95
2022-08-03T18:32:02.749Z,30.85
2022-08-03T18:34:34.494Z,30.77
2022-08-03T18:37:07.710Z,30.63
2022-08-03T18:39:50.262Z,30.48
2022-08-03T18:42:25.813Z,30.36
2022-08-03T18:44:58.300Z,30.25
2022-08-03T18:47:50.703Z,30.20
2022-08-03T18:50:46.515Z,30.08
2022-08-03T18:54:04.059Z,29.97
2022-08-03T18:56:54.848Z,29.83
2022-08-03T19:00:12.219Z,29.72
2022-08-03T19:02:55.881Z,29.59
2022-08-03T19:05:57.735Z,29.47
2022-08-03T19:08:28.616Z,29.35
2022-08-03T19:11:06.080Z,29.23
2022-08-03T19:13:50.424Z,29.13
2022-08-03T19:16:42.128Z,29.02
2022-08-03T19:19:14.452Z,28.95
2022-08-03T19:21:44.338Z,28.89
2022-08-03T19:24:14.085Z,28.81
2022-08-03T19:26:43.203Z,28.72
2022-08-03T19:29:18.579Z,28.62
2022-08-03T19:31:59.346Z,28.56
2022-08-03T19:34:30.614Z,28.43
2022-08-03T19:36:59.447Z,28.35
2022-08-03T19:39:27.468Z,28.26
2022-08-03T19:42:09.184Z,28.16
2022-08-03T19:44:59.238Z,28.07
2022-08-03T19:47:34.681Z,28.00
2022-08-03T19:50:13.985Z,27.89
2022-08-03T19:52:47.724Z,27.79
2022-08-03T19:55:18.491Z,27.72
2022-08-03T19:57:49.734Z,27.65
2022-08-03T20:00:26.394Z,27.58
2022-08-03T20:02:54.294Z,27.50
2022-08-03T20:05:21.608Z,27.45
2022-08-03T20:07:50.777Z,27.41
2022-08-03T20:10:20.735Z,27.37
2022-08-03T20:12:49.680Z,27.36
2022-08-03T20:15:22.541Z,27.35
2022-08-03T20:17:59.688Z,27.32
2022-08-03T20:20:35.668Z,27.27
2022-08-03T20:23:18.134Z,27.24
2022-08-03T20:26:00.691Z,27.18
2022-08-03T20:28:50.599Z,27.14
2022-08-03T20:31:22.757Z,27.10
2022-08-03T20:33:54.064Z,27.07
2022-08-03T20:36:22.739Z,27.01
2022-08-03T20:38:57.633Z,26.94
2022-08-03T20:41:25.699Z,26.89
2022-08-03T20:43:53.283Z,26.86
2022-08-03T20:46:31.093Z,26.83
2022-08-03T20:49:05.985Z,26.78
2022-08-03T20:51:49.820Z,26.72
2022-08-03T20:54:30.919Z,26.65
2022-08-03T20:57:04.377Z,26.59
2022-08-03T20:59:50.501Z,26.55
2022-08-03T21:02:30.096Z,26.50
2022-08-03T21:05:03.416Z,26.48
2022-08-03T21:08:06.402Z,26.46
2022-08-03T21:10:39.681Z,26.42
2022-08-03T21:13:30.001Z,26.40
2022-08-03T21:16:06.410Z,26.38
2022-08-03T21:18:53.409Z,26.35
2022-08-03T21:21:23.605Z,26.34
2022-08-03T21:23:54.767Z,26.32
2022-08-03T21:26:26.833Z,26.28
2022-08-03T21:28:56.774Z,26.26
2022-08-03T21:31:26.780Z,26.22
2022-08-03T21:33:57.900Z,26.19
2022-08-03T21:36:32.846Z,26.16
2022-08-03T21:39:02.562Z,26.11
2022-08-03T21:41:32.987Z,26.07
2022-08-03T21:44:02.035Z,26.01
2022-08-03T21:46:40.027Z,25.99
2022-08-03T21:50:05.893Z,25.94
2022-08-03T21:52:07.168Z,25.89
2022-08-03T21:54:43.330Z,25.84
2022-08-03T21:57:31.068Z,25.77
2022-08-03T22:00:14.598Z,25.75
2022-08-03T22:02:53.161Z,25.71
2022-08-03T22:05:42.549Z,25.70
2022-08-03T22:08:13.858Z,25.67
2022-08-03T22:10:45.859Z,25.67
2022-08-03T22:13:42.887Z,25.64
2022-08-03T22:16:05.940Z,25.61
2022-08-03T22:18:38.088Z,25.55
2022-08-03T22:21:09.133Z,25.51
2022-08-03T22:23:47.995Z,25.48
2022-08-03T22:26:34.844Z,25.43
2022-08-03T22:29:08.323Z,25.39
2022-08-03T22:31:58.363Z,25.36
2022-08-03T22:34:27.446Z,25.33
2022-08-03T22:37:02.094Z,25.30
2022-08-03T22:39:30.448Z,25.28
2022-08-03T22:42:01.610Z,25.26
2022-08-03T22:44:29.586Z,25.21
2022-08-03T22:46:58.014Z,25.19
2022-08-03T22:49:28.133Z,25.16
2022-08-03T22:51:56.420Z,25.14
2022-08-03T22:54:25.626Z,25.11
2022-08-03T22:56:53.066Z,25.07
2022-08-03T22:59:39.809Z,25.04
2022-08-03T23:02:21.005Z,25.01
2022-08-03T23:05:01.626Z,25.00
2022-08-03T23:07:36.007Z,24.94
2022-08-03T23:10:11.028Z,24.93
2022-08-03T23:12:42.158Z,24.90
2022-08-03T23:15:13.391Z,24.88
2022-08-03T23:17:58.266Z,24.84
2022-08-03T23:20:28.882Z,24.83
2022-08-03T23:22:57.790Z,24.81
2022-08-03T23:25:26.584Z,24.78
2022-08-03T23:28:04.621Z,24.74
2022-08-03T23:30:37.655Z,24.70
2022-08-03T23:33:06.650Z,24.66
2022-08-03T23:36:28.420Z,24.64
2022-08-03T23:38:43.515Z,24.59
2022-08-03T23:41:13.449Z,24.53
2022-08-03T23:43:51.799Z,24.49
2022-08-03T23:46:27.348Z,24.45
2022-08-03T23:48:56.643Z,24.42
2022-08-03T23:51:41.743Z,24.39
2022-08-03T23:54:40.391Z,24.36
2022-08-03T23:57:44.115Z,24.31
